Time;durP1;ratioP1;P1;durP2;ratioP2;P2;SDS_P1;SDS_P2;PMS_P1;PMS_P2;Temp;Humidity;BMP_temperature;BMP_pressure;BME280_temperature;BME280_humidity;BME280_pressure;Samples;Min_cycle;Max_cycle;Signal;HPM_P1;HPM_P2
2023/04/18 00:00:20;;;;;;;8.07;4.50;;;10.10;94.30;;;;;;5068935;28;20036;-70
2023/04/18 00:02:45;;;;;;;12.52;5.15;;;10.10;94.40;;;;;;5070160;28;20033;-71
2023/04/18 00:05:11;;;;;;;9.38;4.97;;;10.00;94.60;;;;;;5070233;28;20079;-70
2023/04/18 00:07:38;;;;;;;8.80;5.15;;;9.90;95.50;;;;;;5070451;28;20017;-70
2023/04/18 00:10:05;;;;;;;7.72;4.90;;;9.90;95.80;;;;;;5070604;28;20025;-70
2023/04/18 00:12:33;;;;;;;10.63;5.77;;;9.80;96.10;;;;;;5070261;28;20028;-70
2023/04/18 00:14:59;;;;;;;9.48;5.95;;;9.90;96.30;;;;;;5070320;28;20258;-70
2023/04/18 00:17:26;;;;;;;10.90;5.03;;;9.80;96.40;;;;;;5070366;28;20029;-70
2023/04/18 00:19:53;;;;;;;10.90;4.90;;;9.90;96.40;;;;;;5069967;28;20553;-69
2023/04/18 00:22:22;;;;;;;9.73;5.57;;;9.80;96.50;;;;;;5070410;28;20472;-69
2023/04/18 00:24:48;;;;;;;13.10;5.45;;;9.80;96.40;;;;;;5069993;28;20462;-70
2023/04/18 00:27:15;;;;;;;10.18;5.28;;;9.90;96.40;;;;;;5070037;28;20064;-70
2023/04/18 00:29:41;;;;;;;15.20;5.88;;;10.00;95.90;;;;;;5072432;28;20075;-70
2023/04/18 00:32:07;;;;;;;10.65;5.85;;;10.00;95.90;;;;;;5074104;28;20474;-69
2023/04/18 00:34:33;;;;;;;10.02;5.57;;;9.90;96.40;;;;;;5074118;28;20020;-69
2023/04/18 00:36:59;;;;;;;11.20;5.68;;;9.90;96.50;;;;;;5074923;28;20086;-70
2023/04/18 00:39:24;;;;;;;7.88;4.80;;;9.90;96.60;;;;;;5072736;28;20074;-68
2023/04/18 00:41:50;;;;;;;11.15;5.65;;;9.90;96.60;;;;;;5073864;28;20028;-69
2023/04/18 00:44:16;;;;;;;9.07;5.15;;;9.90;96.70;;;;;;5074003;28;20071;-70
2023/04/18 00:46:42;;;;;;;9.07;5.63;;;9.90;97.10;;;;;;5072653;28;20056;-69
2023/04/18 00:49:08;;;;;;;8.90;5.43;;;9.80;96.80;;;;;;5074288;28;20025;-70
2023/04/18 00:51:34;;;;;;;8.98;5.40;;;9.90;96.70;;;;;;5073723;28;20071;-70
2023/04/18 00:54:02;;;;;;;10.00;5.13;;;10.00;96.20;;;;;;5073774;28;20028;-70
2023/04/18 00:56:28;;;;;;;11.13;5.65;;;10.00;96.20;;;;;;5073613;28;20376;-68
2023/04/18 00:58:55;;;;;;;9.57;5.30;;;10.00;96.30;;;;;;5073435;28;20351;-68
2023/04/18 01:01:21;;;;;;;10.23;5.65;;;10.00;96.30;;;;;;5073974;28;20094;-70
2023/04/18 01:03:47;;;;;;;10.65;5.18;;;10.00;96.40;;;;;;5073519;28;20458;-70
2023/04/18 01:06:13;;;;;;;11.07;5.63;;;10.00;96.40;;;;;;5072397;28;20036;-69
2023/04/18 01:08:39;;;;;;;10.45;5.32;;;10.00;96.30;;;;;;5073261;28;20020;-70
2023/04/18 01:11:05;;;;;;;9.75;5.43;;;10.20;96.50;;;;;;5073336;28;20044;-70
2023/04/18 01:13:31;;;;;;;12.00;5.20;;;10.00;96.60;;;;;;5072099;28;20059;-70
2023/04/18 01:15:57;;;;;;;10.25;5.45;;;10.00;96.70;;;;;;5073664;28;20025;-70
2023/04/18 01:18:24;;;;;;;8.90;5.43;;;9.90;97.30;;;;;;5072221;28;20062;-69
2023/04/18 01:20:51;;;;;;;10.00;5.47;;;9.90;97.30;;;;;;5073111;28;20119;-69
2023/04/18 01:23:18;;;;;;;9.63;5.68;;;10.00;96.80;;;;;;5071770;28;20071;-71
2023/04/18 01:25:45;;;;;;;11.52;6.45;;;9.90;97.50;;;;;;5072608;28;20119;-69
2023/04/18 01:28:13;;;;;;;14.85;6.30;;;10.10;97.20;;;;;;5073270;28;20113;-69
2023/04/18 01:30:39;;;;;;;;;;;10.10;97.10;;;;;;5073313;28;20137;-70
2023/04/18 01:33:05;;;;;;;10.20;5.93;;;10.00;97.10;;;;;;5072681;28;19994;-69
2023/04/18 01:35:31;;;;;;;9.45;5.68;;;10.00;97.00;;;;;;5078316;28;20493;-69
2023/04/18 01:37:57;;;;;;;13.32;6.40;;;10.10;97.00;;;;;;5092957;28;20032;-70
2023/04/18 01:40:24;;;;;;;13.35;6.68;;;9.90;97.80;;;;;;5092374;28;20035;-71
2023/04/18 01:42:49;;;;;;;10.50;5.88;;;9.80;97.90;;;;;;5093261;28;20466;-69
2023/04/18 01:45:16;;;;;;;10.73;5.90;;;9.80;98.10;;;;;;5093086;28;20046;-69
2023/04/18 01:47:42;;;;;;;12.60;6.38;;;9.80;98.30;;;;;;5092907;28;20048;-69
2023/04/18 01:50:08;;;;;;;11.95;6.90;;;9.70;98.40;;;;;;5092840;28;20111;-70
2023/04/18 01:52:34;;;;;;;15.32;6.88;;;9.80;98.40;;;;;;5092836;28;20036;-70
2023/04/18 01:55:03;;;;;;;11.55;6.53;;;9.70;98.50;;;;;;5093318;28;20438;-70
2023/04/18 01:57:29;;;;;;;11.50;7.18;;;9.70;98.60;;;;;;5091687;28;20049;-69
2023/04/18 01:59:55;;;;;;;11.20;6.78;;;9.70;98.60;;;;;;5092469;28;20462;-69
2023/04/18 02:02:21;;;;;;;13.95;7.10;;;9.70;98.80;;;;;;5092727;28;20081;-69
2023/04/18 02:04:46;;;;;;;16.77;7.10;;;9.60;99.00;;;;;;5092777;28;20020;-69
2023/04/18 02:07:12;;;;;;;13.18;7.63;;;9.60;98.90;;;;;;5093159;28;20503;-71
2023/04/18 02:09:37;;;;;;;17.58;7.40;;;9.60;99.10;;;;;;5092409;28;20089;-70
2023/04/18 02:12:03;;;;;;;17.48;6.93;;;9.60;99.40;;;;;;5091311;28;20056;-70
2023/04/18 02:14:31;;;;;;;15.45;7.75;;;9.50;99.50;;;;;;5092373;28;20412;-71
2023/04/18 02:16:57;;;;;;;15.93;8.45;;;9.50;99.90;;;;;;5092356;28;20365;-70
2023/04/18 02:19:23;;;;;;;15.30;8.18;;;9.50;99.90;;;;;;5091245;28;20034;-70
2023/04/18 02:21:49;;;;;;;14.82;8.13;;;9.50;99.90;;;;;;5092876;28;20099;-69
2023/04/18 02:24:15;;;;;;;20.52;9.00;;;9.50;99.90;;;;;;5092150;28;20112;-70
2023/04/18 02:26:41;;;;;;;17.70;9.25;;;9.50;99.90;;;;;;5092080;28;20119;-70
2023/04/18 02:29:06;;;;;;;14.32;7.78;;;9.40;99.90;;;;;;5092486;28;20042;-70
2023/04/18 02:31:32;;;;;;;14.10;7.82;;;9.40;99.90;;;;;;5092096;28;20049;-70
2023/04/18 02:33:58;;;;;;;15.27;8.63;;;9.40;99.90;;;;;;5092387;28;20024;-70
2023/04/18 02:36:26;;;;;;;15.25;8.75;;;9.40;99.90;;;;;;5092002;28;20051;-69
2023/04/18 02:38:51;;;;;;;14.90;8.30;;;9.40;99.90;;;;;;5091943;28;20711;-70
2023/04/18 02:41:18;;;;;;;15.75;8.55;;;9.40;99.90;;;;;;5091989;28;20038;-70
2023/04/18 02:43:44;;;;;;;15.23;7.95;;;9.50;99.90;;;;;;5090749;28;20024;-69
2023/04/18 02:46:10;;;;;;;13.30;8.00;;;9.50;99.90;;;;;;5091231;28;20024;-70
2023/04/18 02:48:36;;;;;;;15.65;7.47;;;9.50;99.90;;;;;;5091815;28;20049;-70
2023/04/18 02:51:06;;;;;;;14.40;8.13;;;9.60;99.90;;;;;;5090334;28;20048;-69
2023/04/18 02:53:33;;;;;;;16.45;8.90;;;9.60;99.90;;;;;;5091377;28;20048;-70
2023/04/18 02:55:58;;;;;;;16.58;8.45;;;9.50;99.90;;;;;;5091500;28;20024;-71
2023/04/18 02:58:24;;;;;;;18.83;8.98;;;9.40;99.90;;;;;;5091497;28;20350;-71
2023/04/18 03:00:52;;;;;;;17.25;8.40;;;9.40;99.90;;;;;;5091298;28;20433;-72
2023/04/18 03:03:18;;;;;;;;;;;9.40;99.90;;;;;;5090777;28;20028;-71
2023/04/18 03:05:43;;;;;;;13.18;7.85;;;9.50;99.90;;;;;;5091453;28;19980;-71
2023/04/18 03:08:09;;;;;;;14.38;8.05;;;9.50;99.90;;;;;;5091322;28;20024;-71
2023/04/18 03:10:35;;;;;;;15.85;8.10;;;9.60;99.90;;;;;;5091364;28;20020;-70
2023/04/18 03:13:01;;;;;;;15.88;7.90;;;9.60;99.90;;;;;;5091766;28;20456;-70
2023/04/18 03:15:29;;;;;;;18.40;8.75;;;9.60;99.90;;;;;;5091362;28;20032;-69
2023/04/18 03:17:55;;;;;;;;;;;9.70;99.90;;;;;;5091873;28;20024;-70
2023/04/18 03:20:21;;;;;;;13.48;7.65;;;9.60;99.90;;;;;;5091470;28;19919;-70
2023/04/18 03:22:47;;;;;;;18.23;8.40;;;9.60;99.90;;;;;;5091312;28;20024;-70
2023/04/18 03:25:13;;;;;;;16.02;8.05;;;9.60;99.90;;;;;;5091407;28;20362;-70
2023/04/18 03:27:39;;;;;;;15.07;8.20;;;9.60;99.90;;;;;;5089844;28;20481;-70
2023/04/18 03:30:05;;;;;;;11.68;6.70;;;9.50;99.90;;;;;;5091094;28;20311;-69
2023/04/18 03:32:32;;;;;;;14.63;8.13;;;9.50;99.90;;;;;;5089718;28;20142;-69
2023/04/18 03:34:58;;;;;;;13.33;8.37;;;9.50;99.90;;;;;;5091082;28;20070;-69
2023/04/18 03:37:24;;;;;;;17.02;8.52;;;9.50;99.90;;;;;;5090728;28;20064;-69
2023/04/18 03:39:49;;;;;;;22.33;9.10;;;9.50;99.90;;;;;;5091177;28;20023;-69
2023/04/18 03:42:15;;;;;;;16.83;9.15;;;9.40;99.90;;;;;;5090679;28;20349;-69
2023/04/18 03:44:41;;;;;;;16.75;9.02;;;9.30;99.90;;;;;;5090739;28;20028;-69
2023/04/18 03:47:06;;;;;;;15.60;8.70;;;9.20;99.90;;;;;;5090938;28;20032;-68
2023/04/18 03:49:32;;;;;;;15.27;9.00;;;9.30;99.90;;;;;;5090834;28;20058;-70
2023/04/18 03:51:58;;;;;;;15.85;8.77;;;9.40;99.90;;;;;;5091289;28;20024;-70
2023/04/18 03:54:23;;;;;;;17.58;9.48;;;9.20;99.90;;;;;;5090714;28;20082;-70
2023/04/18 03:56:49;;;;;;;17.90;8.68;;;9.30;99.90;;;;;;5089546;28;20393;-70
2023/04/18 03:59:15;;;;;;;16.42;8.82;;;9.30;99.90;;;;;;5090493;28;20479;-69
2023/04/18 04:01:40;;;;;;;16.85;9.93;;;9.30;99.90;;;;;;5089435;28;20034;-70
2023/04/18 04:04:08;;;;;;;18.85;9.32;;;9.30;99.90;;;;;;5090692;28;20020;-70
2023/04/18 04:06:33;;;;;;;16.17;9.52;;;9.40;99.90;;;;;;5090479;28;20090;-70
2023/04/18 04:08:59;;;;;;;21.85;8.75;;;9.40;99.90;;;;;;5090661;28;20028;-70
2023/04/18 04:11:25;;;;;;;17.95;8.80;;;9.30;99.90;;;;;;5090150;28;20036;-70
2023/04/18 04:13:52;;;;;;;16.50;9.07;;;9.40;99.90;;;;;;5088793;28;20028;-70
2023/04/18 04:16:17;;;;;;;15.68;8.90;;;9.30;99.90;;;;;;5090848;28;20050;-70
2023/04/18 04:18:43;;;;;;;16.75;9.18;;;9.30;99.90;;;;;;5090543;28;20032;-68
2023/04/18 04:21:09;;;;;;;20.08;9.32;;;9.30;99.90;;;;;;5090546;28;20048;-69
2023/04/18 04:23:35;;;;;;;16.15;8.98;;;9.30;99.90;;;;;;5090526;28;20106;-70
2023/04/18 04:26:03;;;;;;;15.18;9.07;;;9.20;99.90;;;;;;5090449;28;20043;-70
2023/04/18 04:28:30;;;;;;;19.63;9.02;;;9.30;99.90;;;;;;5089230;28;20073;-70
2023/04/18 04:30:56;;;;;;;15.48;8.40;;;9.20;99.90;;;;;;5089599;28;20442;-69
2023/04/18 04:33:24;;;;;;;18.13;9.38;;;9.30;99.90;;;;;;5089040;28;20166;-70
2023/04/18 04:35:51;;;;;;;15.23;8.95;;;9.30;99.90;;;;;;5089875;28;20039;-69
2023/04/18 04:38:18;;;;;;;15.85;8.95;;;9.30;99.90;;;;;;5090216;28;20031;-70
2023/04/18 04:40:45;;;;;;;13.93;8.00;;;9.30;99.90;;;;;;5090045;28;20028;-71
2023/04/18 04:43:11;;;;;;;15.85;8.68;;;9.40;99.90;;;;;;5090552;28;20024;-70
2023/04/18 04:45:41;;;;;;;16.67;9.10;;;9.50;99.90;;;;;;5090381;28;20028;-71
2023/04/18 04:48:07;;;;;;;16.50;8.60;;;9.50;99.90;;;;;;5089386;28;20020;-70
2023/04/18 04:50:35;;;;;;;18.25;8.88;;;9.50;99.90;;;;;;5072092;28;20398;-70
2023/04/18 04:53:01;;;;;;;14.57;8.45;;;9.50;99.90;;;;;;5089988;28;20109;-70
2023/04/18 04:55:26;;;;;;;15.52;9.32;;;9.50;99.90;;;;;;5089451;28;20441;-70
2023/04/18 04:57:54;;;;;;;18.48;9.07;;;9.60;99.90;;;;;;5089538;28;20067;-69
2023/04/18 05:00:21;;;;;;;17.52;8.52;;;9.60;99.90;;;;;;5090224;28;20450;-69
2023/04/18 05:02:58;;;;;;;18.33;9.38;;;9.50;99.90;;;;;;5088957;28;20051;-70
2023/04/18 05:05:24;;;;;;;19.88;8.82;;;9.50;99.90;;;;;;5088638;28;20277;-71
2023/04/18 05:07:49;;;;;;;16.45;8.00;;;9.50;99.90;;;;;;5089224;28;20035;-68
2023/04/18 05:10:15;;;;;;;15.35;7.90;;;9.50;99.90;;;;;;5090408;28;20024;-69
2023/04/18 05:12:41;;;;;;;15.27;8.63;;;9.50;99.90;;;;;;5089837;28;20365;-68
2023/04/18 05:15:07;;;;;;;18.17;9.15;;;9.40;99.90;;;;;;5090213;28;20028;-71
2023/04/18 05:17:33;;;;;;;15.05;8.45;;;9.40;99.90;;;;;;5094076;28;20470;-69
2023/04/18 05:19:59;;;;;;;16.27;8.63;;;9.40;99.90;;;;;;5093780;28;20056;-70
2023/04/18 05:22:25;;;;;;;17.90;8.93;;;9.40;99.90;;;;;;5093875;28;20035;-70
2023/04/18 05:24:51;;;;;;;19.13;8.85;;;9.50;99.90;;;;;;5094423;28;20025;-69
2023/04/18 05:27:17;;;;;;;20.38;9.57;;;9.50;99.90;;;;;;5093369;28;20035;-70
2023/04/18 05:29:42;;;;;;;15.50;7.93;;;9.40;99.90;;;;;;5092290;28;20047;-71
2023/04/18 05:32:08;;;;;;;15.35;7.97;;;9.40;99.90;;;;;;5092266;28;20091;-70
2023/04/18 05:34:36;;;;;;;16.98;8.23;;;9.40;99.90;;;;;;5093331;28;20028;-71
2023/04/18 05:37:01;;;;;;;16.88;8.70;;;9.40;99.90;;;;;;5094260;28;20026;-69
2023/04/18 05:39:27;;;;;;;18.77;8.93;;;9.40;99.90;;;;;;5092937;28;20028;-70
2023/04/18 05:41:53;;;;;;;19.20;9.55;;;9.40;99.90;;;;;;5093134;28;20036;-69
2023/04/18 05:44:18;;;;;;;18.27;8.82;;;9.40;99.90;;;;;;5092928;28;20033;-71
2023/04/18 05:46:45;;;;;;;18.33;8.98;;;9.50;99.90;;;;;;5093235;28;20043;-70
2023/04/18 05:49:11;;;;;;;16.00;8.73;;;9.50;99.90;;;;;;5092672;28;20063;-70
2023/04/18 05:51:37;;;;;;;17.92;9.57;;;9.60;99.90;;;;;;5092041;28;20115;-70
2023/04/18 05:54:03;;;;;;;27.58;9.90;;;9.60;99.90;;;;;;5092127;28;20165;-69
2023/04/18 05:56:29;;;;;;;19.02;9.38;;;9.60;99.90;;;;;;5093051;28;20129;-70
2023/04/18 05:58:55;;;;;;;17.65;8.82;;;9.70;99.90;;;;;;5091391;28;20032;-71
2023/04/18 06:01:21;;;;;;;16.60;9.02;;;9.70;99.90;;;;;;5093303;28;20024;-70
2023/04/18 06:03:47;;;;;;;16.98;9.02;;;9.80;99.90;;;;;;5093027;28;20111;-70
2023/04/18 06:06:13;;;;;;;15.70;8.57;;;9.80;99.90;;;;;;5093093;28;20442;-71
2023/04/18 06:08:39;;;;;;;16.70;8.93;;;9.80;99.90;;;;;;5092923;28;20024;-69
2023/04/18 06:11:05;;;;;;;21.60;10.02;;;9.90;99.90;;;;;;5092618;28;20032;-70
2023/04/18 06:13:31;;;;;;;15.48;9.07;;;9.90;99.90;;;;;;5092710;28;20023;-70
2023/04/18 06:15:57;;;;;;;16.73;9.18;;;10.00;99.80;;;;;;5093280;28;20326;-70
2023/04/18 06:18:23;;;;;;;15.93;9.07;;;9.90;99.90;;;;;;5091783;28;20107;-71
2023/04/18 06:20:50;;;;;;;22.77;10.57;;;9.90;99.90;;;;;;5091538;28;20124;-71
2023/04/18 06:23:16;;;;;;;19.75;9.32;;;9.90;99.90;;;;;;5092844;28;20349;-71
2023/04/18 06:25:41;;;;;;;19.33;9.63;;;9.90;99.90;;;;;;5097118;28;20021;-70
2023/04/18 06:28:08;;;;;;;14.80;9.07;;;10.10;99.50;;;;;;5092960;28;20602;-71
2023/04/18 06:30:34;;;;;;;19.35;9.80;;;10.00;99.50;;;;;;5084946;28;20029;-71
2023/04/18 06:33:00;;;;;;;17.45;9.52;;;10.00;99.40;;;;;;5071890;28;20060;-71
2023/04/18 06:35:29;;;;;;;15.88;8.50;;;10.10;99.20;;;;;;5071699;28;20477;-70
2023/04/18 06:37:55;;;;;;;15.63;9.00;;;10.10;99.10;;;;;;5071934;28;20466;-71
2023/04/18 06:40:20;;;;;;;14.80;8.68;;;10.00;99.10;;;;;;5073028;28;20120;-71
2023/04/18 06:42:46;;;;;;;17.15;9.80;;;10.10;99.30;;;;;;5071963;28;20086;-71
2023/04/18 06:45:12;;;;;;;17.58;9.15;;;9.90;99.50;;;;;;5070796;28;20032;-70
2023/04/18 06:47:39;;;;;;;21.25;10.13;;;9.80;99.50;;;;;;5072755;28;20401;-72
2023/04/18 06:50:06;;;;;;;15.98;9.70;;;9.80;99.70;;;;;;5071985;28;20154;-69
2023/04/18 06:52:32;;;;;;;15.10;9.23;;;9.80;99.50;;;;;;5070602;28;20354;-69
2023/04/18 06:54:58;;;;;;;16.27;10.02;;;9.90;99.50;;;;;;5071363;28;20065;-71
2023/04/18 06:57:24;;;;;;;21.85;9.60;;;9.90;99.50;;;;;;5071877;28;20131;-74
2023/04/18 06:59:50;;;;;;;14.73;8.95;;;10.00;98.80;;;;;;5071731;28;20036;-71
2023/04/18 07:02:16;;;;;;;17.45;9.45;;;9.90;99.20;;;;;;5071834;28;20024;-73
2023/04/18 07:04:42;;;;;;;16.65;9.05;;;9.90;99.20;;;;;;5072371;28;20088;-72
2023/04/18 07:07:08;;;;;;;18.30;9.38;;;9.90;99.40;;;;;;5072339;28;20149;-71
2023/04/18 07:09:33;;;;;;;17.13;9.13;;;9.80;99.40;;;;;;5071825;28;20063;-70
2023/04/18 07:11:59;;;;;;;18.02;8.75;;;9.90;99.40;;;;;;5073779;28;20032;-71
2023/04/18 07:14:25;;;;;;;16.40;9.75;;;9.80;99.30;;;;;;5071378;28;20079;-71
2023/04/18 07:16:51;;;;;;;17.58;8.98;;;9.90;99.40;;;;;;5072621;28;20028;-71
2023/04/18 07:19:17;;;;;;;18.92;9.82;;;10.00;98.80;;;;;;5070853;28;20040;-69
2023/04/18 07:21:44;;;;;;;20.25;10.02;;;10.10;98.90;;;;;;5071709;28;20028;-70
2023/04/18 07:24:11;;;;;;;15.93;10.25;;;10.00;98.80;;;;;;5071314;28;20058;-71
2023/04/18 07:26:37;;;;;;;19.90;9.38;;;9.90;99.40;;;;;;5070943;28;20127;-69
2023/04/18 07:29:03;;;;;;;17.75;9.90;;;9.90;99.50;;;;;;5070176;28;20033;-70
2023/04/18 07:31:30;;;;;;;18.48;10.32;;;10.10;99.00;;;;;;5070995;28;20052;-70
2023/04/18 07:33:56;;;;;;;20.23;9.88;;;10.10;98.90;;;;;;5072413;28;20017;-71
2023/04/18 07:36:22;;;;;;;18.55;11.25;;;10.10;98.70;;;;;;5072032;28;20450;-70
2023/04/18 07:38:48;;;;;;;20.35;10.68;;;10.10;98.60;;;;;;5070887;28;20052;-70
2023/04/18 07:41:15;;;;;;;18.13;10.00;;;10.00;98.50;;;;;;5071330;28;20097;-70
2023/04/18 07:43:40;;;;;;;17.50;9.90;;;10.10;98.50;;;;;;5071064;28;20035;-69
2023/04/18 07:46:06;;;;;;;17.30;9.45;;;10.20;98.40;;;;;;5070227;28;20029;-68
2023/04/18 07:48:32;;;;;;;18.17;9.32;;;10.30;98.30;;;;;;5071284;28;20393;-69
2023/04/18 07:50:58;;;;;;;19.67;10.63;;;10.30;98.20;;;;;;5069532;28;20028;-69
2023/04/18 07:53:24;;;;;;;19.65;10.70;;;10.40;98.20;;;;;;5069526;28;20028;-69
2023/04/18 07:55:50;;;;;;;18.92;10.63;;;10.40;98.00;;;;;;5070497;28;20037;-69
2023/04/18 07:58:16;;;;;;;17.88;10.05;;;10.40;98.00;;;;;;5070953;28;20375;-68
2023/04/18 08:00:43;;;;;;;19.45;9.98;;;10.40;98.00;;;;;;5070378;28;20420;-69
2023/04/18 08:03:10;;;;;;;14.77;9.23;;;10.40;97.80;;;;;;5070482;28;20112;-68
2023/04/18 08:05:37;;;;;;;15.90;9.23;;;10.50;97.80;;;;;;5069138;28;20112;-69
2023/04/18 08:08:04;;;;;;;17.73;9.15;;;10.50;97.60;;;;;;5070404;28;20110;-69
2023/04/18 08:10:30;;;;;;;19.73;9.05;;;10.60;97.50;;;;;;5069559;28;20020;-70
2023/04/18 08:12:55;;;;;;;17.23;9.23;;;10.80;97.30;;;;;;5070767;28;20013;-69
2023/04/18 08:15:21;;;;;;;15.35;9.20;;;11.00;97.20;;;;;;5070400;28;20393;-70
2023/04/18 08:17:47;;;;;;;14.20;9.05;;;11.20;96.80;;;;;;5069362;28;20028;-71
2023/04/18 08:20:14;;;;;;;14.68;8.15;;;11.60;96.60;;;;;;5070428;28;20024;-70
2023/04/18 08:22:40;;;;;;;12.98;8.35;;;12.10;96.10;;;;;;5069988;28;20250;-69
2023/04/18 08:25:07;;;;;;;15.50;8.02;;;12.60;95.90;;;;;;5070828;28;20120;-69
2023/04/18 08:27:32;;;;;;;14.52;8.07;;;13.80;95.20;;;;;;5070226;28;20105;-69
2023/04/18 08:29:59;;;;;;;17.70;8.40;;;15.10;93.60;;;;;;5070350;28;20029;-69
2023/04/18 08:32:24;;;;;;;11.63;8.27;;;16.10;92.30;;;;;;5070057;28;20440;-71
2023/04/18 08:34:50;;;;;;;21.02;11.23;;;16.60;91.40;;;;;;5070068;28;20028;-70
2023/04/18 08:37:16;;;;;;;12.20;7.68;;;16.90;89.90;;;;;;5070246;28;20024;-70
2023/04/18 08:39:42;;;;;;;15.27;7.55;;;16.90;89.70;;;;;;5069981;28;20492;-72
2023/04/18 08:42:10;;;;;;;12.98;7.25;;;16.80;88.20;;;;;;5070058;28;20033;-70
2023/04/18 08:44:36;;;;;;;11.48;7.50;;;17.10;88.40;;;;;;5069786;28;20037;-69
2023/04/18 08:47:02;;;;;;;14.48;8.00;;;17.90;87.40;;;;;;5068741;28;20050;-69
2023/04/18 08:49:30;;;;;;;12.65;7.32;;;18.30;84.90;;;;;;5070202;28;20111;-68
2023/04/18 08:51:57;;;;;;;11.02;6.53;;;18.90;85.20;;;;;;5074724;28;20028;-69
2023/04/18 08:54:24;;;;;;;12.95;7.35;;;19.30;82.60;;;;;;5072857;28;20048;-69
2023/04/18 08:57:06;;;;;;;11.02;7.20;;;19.70;80.90;;;;;;5074056;28;20062;-69
2023/04/18 08:59:34;;;;;;;10.90;7.07;;;19.30;79.20;;;;;;5074315;28;20021;-68
2023/04/18 09:02:01;;;;;;;10.43;6.72;;;18.80;80.00;;;;;;5073653;28;20382;-69
2023/04/18 09:04:36;;;;;;;10.43;7.63;;;18.50;80.20;;;;;;5073464;28;20035;-69
2023/04/18 09:07:03;;;;;;;8.20;5.60;;;18.30;80.90;;;;;;5073849;28;20330;-70
2023/04/18 09:09:59;;;;;;;8.48;5.90;;;18.50;79.70;;;;;;5073569;28;20119;-71
2023/04/18 09:12:27;;;;;;;9.02;5.82;;;18.50;79.60;;;;;;5064076;28;20036;-71
2023/04/18 09:14:58;;;;;;;9.75;6.45;;;18.00;79.00;;;;;;5073018;28;20067;-71
2023/04/18 09:17:37;;;;;;;10.38;5.97;;;17.70;80.40;;;;;;5072227;28;20139;-69
2023/04/18 09:20:05;;;;;;;8.43;5.65;;;18.20;80.40;;;;;;5073442;28;20054;-70
2023/04/18 09:22:51;;;;;;;10.60;6.40;;;18.70;78.40;;;;;;5072905;28;20078;-70
2023/04/18 09:25:48;;;;;;;11.82;6.00;;;18.30;78.40;;;;;;5073684;28;20020;-70
2023/04/18 09:28:25;;;;;;;11.23;6.00;;;18.20;78.70;;;;;;5056579;28;20029;-71
2023/04/18 09:30:51;;;;;;;9.55;5.78;;;17.90;79.30;;;;;;5072645;28;20093;-71
2023/04/18 09:33:27;;;;;;;12.30;7.30;;;17.40;79.90;;;;;;5073319;28;20037;-71
2023/04/18 09:35:54;;;;;;;10.02;6.32;;;17.60;80.40;;;;;;5073037;28;20029;-70
2023/04/18 09:38:37;;;;;;;9.18;5.35;;;18.10;78.90;;;;;;5073247;28;20032;-70
2023/04/18 09:41:14;;;;;;;7.53;5.78;;;18.30;77.30;;;;;;5072473;28;20033;-69
2023/04/18 09:43:40;;;;;;;9.00;5.15;;;18.30;77.20;;;;;;5073150;28;20450;-70
2023/04/18 09:46:07;;;;;;;9.27;5.38;;;18.30;76.60;;;;;;5073487;28;20024;-71
2023/04/18 09:48:33;;;;;;;9.83;6.17;;;18.30;76.60;;;;;;5072240;28;20025;-72
2023/04/18 09:51:05;;;;;;;9.25;5.38;;;17.60;76.90;;;;;;5073254;28;20351;-71
2023/04/18 09:53:33;;;;;;;8.65;5.63;;;17.00;78.30;;;;;;5073166;28;20025;-71
2023/04/18 09:55:59;;;;;;;7.25;5.05;;;17.00;78.70;;;;;;5072936;28;20021;-66
2023/04/18 09:58:31;;;;;;;8.68;5.00;;;16.40;78.80;;;;;;5073063;28;20376;-69
2023/04/18 10:00:58;;;;;;;7.93;5.18;;;16.20;78.90;;;;;;5072695;28;20084;-69
2023/04/18 10:03:31;;;;;;;8.32;5.20;;;16.60;79.50;;;;;;5073383;28;20039;-69
2023/04/18 10:05:57;;;;;;;10.13;5.57;;;17.80;77.80;;;;;;5072785;28;20115;-72
2023/04/18 10:08:23;;;;;;;7.03;4.78;;;18.60;75.40;;;;;;5072423;28;20596;-70
2023/04/18 10:10:48;;;;;;;8.15;5.50;;;18.40;75.10;;;;;;5072461;28;20139;-70
2023/04/18 10:13:17;;;;;;;9.45;5.50;;;18.10;75.80;;;;;;5072663;28;20358;-71
2023/04/18 10:15:43;;;;;;;10.60;6.05;;;17.70;76.40;;;;;;5072423;28;20055;-69
2023/04/18 10:18:13;;;;;;;11.10;6.10;;;17.30;77.20;;;;;;5072011;28;20470;-70
2023/04/18 10:20:40;;;;;;;9.63;5.38;;;16.80;78.00;;;;;;5072346;28;20042;-70
2023/04/18 10:23:31;;;;;;;7.03;4.85;;;16.40;78.70;;;;;;5071939;28;20028;-71
2023/04/18 10:25:57;;;;;;;10.95;5.63;;;16.00;79.30;;;;;;5070953;28;20399;-70
2023/04/18 10:28:25;;;;;;;8.10;5.05;;;15.40;79.80;;;;;;5071908;28;20036;-68
2023/04/18 10:30:54;;;;;;;8.90;5.60;;;15.10;80.70;;;;;;5072455;28;20094;-69
2023/04/18 10:33:36;;;;;;;9.73;5.63;;;15.10;80.90;;;;;;5071776;28;20137;-70
2023/04/18 10:36:05;;;;;;;10.98;5.20;;;15.30;81.30;;;;;;5071994;28;20036;-69
2023/04/18 10:38:32;;;;;;;10.18;6.13;;;15.30;81.40;;;;;;5071642;28;20101;-67
2023/04/18 10:41:16;;;;;;;7.50;5.07;;;15.20;81.50;;;;;;5071966;28;20395;-69
2023/04/18 10:44:21;;;;;;;8.65;5.07;;;15.10;81.20;;;;;;5071679;28;20446;-69
2023/04/18 10:46:47;;;;;;;9.07;4.72;;;15.20;81.20;;;;;;5029415;28;20101;-70
2023/04/18 10:49:22;;;;;;;9.73;5.30;;;15.10;81.20;;;;;;5064399;28;20082;-70
2023/04/18 10:51:53;;;;;;;8.70;4.85;;;14.80;81.60;;;;;;5071691;28;20063;-69
2023/04/18 10:54:30;;;;;;;8.52;4.88;;;14.70;81.60;;;;;;5072414;28;20378;-69
2023/04/18 10:56:58;;;;;;;6.57;4.47;;;14.60;81.80;;;;;;5070620;28;20036;-69
2023/04/18 10:59:25;;;;;;;9.93;4.35;;;14.60;82.10;;;;;;5071511;28;20068;-68
2023/04/18 11:01:56;;;;;;;11.03;5.07;;;14.50;82.40;;;;;;5071569;28;20112;-73
2023/04/18 11:04:23;;;;;;;7.85;4.57;;;14.50;83.50;;;;;;5072375;28;20028;-70
2023/04/18 11:06:53;;;;;;;8.93;5.05;;;14.50;84.00;;;;;;5071340;28;20043;-71
2023/04/18 11:09:20;;;;;;;6.68;4.43;;;14.70;83.50;;;;;;5071723;28;20115;-73
2023/04/18 11:12:01;;;;;;;7.68;4.57;;;14.80;83.20;;;;;;5071182;28;20028;-72
2023/04/18 11:14:41;;;;;;;8.70;5.47;;;14.80;82.80;;;;;;5070783;28;20078;-70
2023/04/18 11:17:24;;;;;;;8.50;4.70;;;14.90;82.20;;;;;;5070972;28;20029;-70
2023/04/18 11:20:10;;;;;;;6.45;4.13;;;15.20;82.60;;;;;;5070780;28;20474;-71
2023/04/18 11:22:57;;;;;;;7.75;4.57;;;15.20;81.50;;;;;;5070893;28;20453;-70
2023/04/18 11:25:34;;;;;;;9.18;4.22;;;15.40;81.70;;;;;;5070847;28;20099;-73
2023/04/18 11:28:01;;;;;;;7.85;4.05;;;15.40;80.80;;;;;;5070243;28;20025;-71
2023/04/18 11:30:38;;;;;;;13.07;5.53;;;15.30;80.20;;;;;;5071060;28;20028;-72
2023/04/18 11:33:11;;;;;;;6.57;4.10;;;15.20;80.90;;;;;;5069146;28;20048;-71
2023/04/18 11:35:41;;;;;;;7.40;4.13;;;15.10;81.20;;;;;;5071041;28;20028;-70
2023/04/18 11:38:08;;;;;;;14.65;8.57;;;15.00;80.80;;;;;;5069738;28;20028;-70
2023/04/18 11:40:35;;;;;;;10.27;4.90;;;15.10;81.30;;;;;;5071048;28;20240;-71
2023/04/18 11:43:02;;;;;;;6.83;4.40;;;15.30;80.80;;;;;;5071293;28;20021;-70
2023/04/18 11:45:28;;;;;;;13.10;4.67;;;15.40;80.40;;;;;;5070979;28;20025;-73
2023/04/18 11:47:58;;;;;;;8.25;4.93;;;15.30;80.20;;;;;;5071248;28;20111;-70
2023/04/18 11:50:24;;;;;;;8.80;4.88;;;15.10;80.90;;;;;;5070594;28;20056;-70
2023/04/18 11:52:52;;;;;;;9.43;4.95;;;15.30;80.80;;;;;;5069357;28;20473;-74
2023/04/18 11:55:22;;;;;;;6.00;4.63;;;15.60;80.60;;;;;;5071327;28;20584;-71
2023/04/18 11:57:56;;;;;;;11.57;5.18;;;15.80;79.60;;;;;;5072028;28;20114;-72
2023/04/18 12:00:38;;;;;;;8.10;4.60;;;15.60;78.70;;;;;;5071860;28;20028;-73
2023/04/18 12:03:09;;;;;;;8.15;5.25;;;15.50;79.00;;;;;;5070453;28;20402;-72
2023/04/18 12:05:36;;;;;;;9.07;5.38;;;15.70;79.40;;;;;;5070191;28;20032;-73
2023/04/18 12:08:10;;;;;;;10.03;4.93;;;15.90;78.80;;;;;;5069275;28;20395;-71
2023/04/18 12:10:37;;;;;;;10.35;5.10;;;15.90;78.30;;;;;;5070459;28;20036;-71
2023/04/18 12:13:07;;;;;;;8.05;4.65;;;16.00;78.00;;;;;;5069871;28;20448;-71
2023/04/18 12:15:40;;;;;;;8.13;5.18;;;15.80;78.00;;;;;;5070553;28;20033;-71
2023/04/18 12:18:07;;;;;;;8.93;4.80;;;15.70;78.00;;;;;;5069792;28;20025;-70
2023/04/18 12:20:36;;;;;;;6.70;4.18;;;15.80;78.70;;;;;;5069943;28;20455;-71
2023/04/18 12:23:02;;;;;;;7.90;4.43;;;15.90;78.10;;;;;;5068752;28;20115;-70
2023/04/18 12:25:28;;;;;;;11.18;5.90;;;15.80;77.70;;;;;;5069665;28;20055;-68
2023/04/18 12:28:02;;;;;;;9.43;5.10;;;15.80;78.10;;;;;;5070335;28;20090;-69
2023/04/18 12:30:33;;;;;;;8.32;4.60;;;15.90;78.00;;;;;;5069869;28;20029;-67
2023/04/18 12:33:00;;;;;;;8.00;5.03;;;16.00;77.30;;;;;;5069866;28;20474;-69
2023/04/18 12:35:27;;;;;;;6.87;4.17;;;16.00;77.10;;;;;;5069599;28;20036;-71
2023/04/18 12:37:55;;;;;;;6.90;4.38;;;16.10;77.40;;;;;;5069815;28;20584;-70
2023/04/18 12:40:22;;;;;;;6.20;4.18;;;16.20;77.40;;;;;;5068991;28;20016;-72
2023/04/18 12:42:48;;;;;;;8.70;5.72;;;16.10;77.10;;;;;;5069857;28;20469;-71
2023/04/18 12:45:16;;;;;;;6.88;4.40;;;16.20;77.50;;;;;;5069568;28;20045;-72
2023/04/18 12:47:44;;;;;;;8.50;4.50;;;16.30;77.20;;;;;;5069686;28;20443;-70